createdAt,value
2023-03-06T00:00:46.728Z,93025.03
2023-03-06T00:03:14.404Z,93033.34
2023-03-06T00:05:41.430Z,93024.25
2023-03-06T00:08:10.216Z,93028.66
2023-03-06T00:10:38.479Z,93032.38
2023-03-06T00:13:07.077Z,93033.19
2023-03-06T00:15:34.377Z,93040.53
2023-03-06T00:18:04.140Z,93027.19
2023-03-06T00:20:31.110Z,93025.66
2023-03-06T00:22:58.487Z,93032.88
2023-03-06T00:25:26.894Z,93039.16
2023-03-06T00:27:53.850Z,93039.81
2023-03-06T00:30:23.869Z,93036.88
2023-03-06T00:32:55.149Z,93035.16
2023-03-06T00:35:24.312Z,93040.34
2023-03-06T00:37:52.045Z,93031.69
2023-03-06T00:43:05.096Z,93028.63
2023-03-06T00:45:33.744Z,93034.22
2023-03-06T00:48:02.010Z,93032.75
2023-03-06T00:50:29.564Z,93035.03
2023-03-06T00:53:02.706Z,93039.56
2023-03-06T00:55:44.407Z,93023.41
2023-03-06T00:58:13.670Z,93015.78
2023-03-06T01:00:44.479Z,93012.31
2023-03-06T01:03:11.933Z,93019.13
2023-03-06T01:05:39.174Z,93014.47
2023-03-06T01:08:12.426Z,93009.28
2023-03-06T01:10:40.346Z,93006.75
2023-03-06T01:13:07.325Z,92998.84
2023-03-06T01:15:36.932Z,93004.31
2023-03-06T01:18:05.666Z,93005.94
2023-03-06T01:20:32.627Z,93000.72
2023-03-06T01:22:59.605Z,93007.94
2023-03-06T01:25:28.281Z,93004.72
2023-03-06T01:27:57.047Z,93015.28
2023-03-06T01:30:24.750Z,93004.22
2023-03-06T01:32:54.353Z,93008.06
2023-03-06T01:35:23.669Z,93004.50
2023-03-06T01:37:52.142Z,93010.22
2023-03-06T01:40:21.956Z,93013.56
2023-03-06T01:42:50.500Z,93009.81
2023-03-06T01:46:00.181Z,93010.91
2023-03-06T01:48:28.747Z,93000.59
2023-03-06T01:50:56.150Z,93006.34
2023-03-06T01:53:24.410Z,93007.94
2023-03-06T01:55:52.195Z,93008.06
2023-03-06T01:58:19.649Z,93016.50
2023-03-06T02:00:47.878Z,93008.06
2023-03-06T02:03:17.228Z,93009.81
2023-03-06T02:05:45.876Z,93007.66
2023-03-06T02:08:15.541Z,93011.13
2023-03-06T02:10:43.486Z,93005.41
2023-03-06T02:13:10.714Z,93011.28
2023-03-06T02:15:38.196Z,93014.22
2023-03-06T02:18:05.701Z,93016.59
2023-03-06T02:20:38.032Z,93009.13
2023-03-06T02:23:10.420Z,93011.41
2023-03-06T02:25:41.610Z,93011.66
2023-03-06T02:28:11.174Z,93008.97
2023-03-06T02:30:44.788Z,93016.72
2023-03-06T02:33:13.616Z,93014.41
2023-03-06T02:35:41.415Z,93022.72
2023-03-06T02:38:10.451Z,93025.09
2023-03-06T02:40:37.194Z,93026.19
2023-03-06T02:43:05.596Z,93030.72
2023-03-06T02:45:36.050Z,93037.53
2023-03-06T02:48:03.189Z,93034.59
2023-03-06T02:50:30.395Z,93043.50
2023-03-06T02:52:57.365Z,93043.50
2023-03-06T02:55:25.336Z,93043.00
2023-03-06T02:57:56.296Z,93039.38
2023-03-06T03:00:25.677Z,93045.50
2023-03-06T03:02:53.217Z,93056.13
2023-03-06T03:05:20.491Z,93046.91
2023-03-06T03:07:53.329Z,93046.38
2023-03-06T03:10:21.360Z,93049.00
2023-03-06T03:12:48.874Z,93043.94
2023-03-06T03:15:16.868Z,93052.47
2023-03-06T03:17:45.523Z,93062.88
2023-03-06T03:20:14.846Z,93055.59
2023-03-06T03:22:42.342Z,93060.50
2023-03-06T03:25:09.941Z,93056.66
2023-03-06T03:27:37.321Z,93061.16
2023-03-06T03:30:06.246Z,93064.88
2023-03-06T03:32:33.361Z,93052.22
2023-03-06T03:35:03.025Z,93047.53
2023-03-06T03:37:30.196Z,93053.81
2023-03-06T03:39:59.232Z,93056.47
2023-03-06T03:42:26.342Z,93066.88
2023-03-06T03:44:54.190Z,93066.50
2023-03-06T03:47:22.207Z,93062.78
2023-03-06T03:49:50.355Z,93065.31
2023-03-06T03:52:21.166Z,93069.53
2023-03-06T03:54:48.179Z,93067.56
2023-03-06T03:57:15.399Z,93069.34
2023-03-06T03:59:47.964Z,93073.97
2023-03-06T04:02:23.860Z,93073.28
2023-03-06T04:05:10.382Z,93073.72
2023-03-06T04:07:38.998Z,93085.63
2023-03-06T04:10:07.436Z,93080.34
2023-03-06T04:12:36.002Z,93089.13
2023-03-06T04:15:04.373Z,93092.31
2023-03-06T04:17:34.153Z,93083.03
2023-03-06T04:20:03.026Z,93082.47
2023-03-06T04:22:31.255Z,93087.97
2023-03-06T04:25:00.159Z,93088.69
2023-03-06T04:27:27.206Z,93091.22
2023-03-06T04:29:56.600Z,93093.59
2023-03-06T04:32:25.385Z,93095.72
2023-03-06T04:34:52.516Z,93096.63
2023-03-06T04:37:21.409Z,93099.06
2023-03-06T04:39:48.934Z,93099.25
2023-03-06T04:42:17.671Z,93089.22
2023-03-06T04:44:44.814Z,93098.66
2023-03-06T04:47:12.174Z,93101.38
2023-03-06T04:49:40.834Z,93097.19
2023-03-06T04:52:08.134Z,93099.25
2023-03-06T04:54:35.062Z,93092.78
2023-03-06T04:57:02.065Z,93099.09
2023-03-06T04:59:30.415Z,93095.44
2023-03-06T05:01:58.174Z,93105.31
2023-03-06T05:04:25.648Z,93089.84
2023-03-06T05:06:52.909Z,93092.59
2023-03-06T05:09:19.905Z,93102.19
2023-03-06T05:11:46.919Z,93102.91
2023-03-06T05:14:14.382Z,93102.41
2023-03-06T05:16:42.966Z,93109.50
2023-03-06T05:19:09.818Z,93103.94
2023-03-06T05:21:37.405Z,93099.56
2023-03-06T05:24:05.364Z,93108.38
2023-03-06T05:26:32.976Z,93117.34
2023-03-06T05:29:00.109Z,93120.19
2023-03-06T05:31:28.963Z,93120.44
2023-03-06T05:33:57.983Z,93110.72
2023-03-06T05:36:25.263Z,93114.16
2023-03-06T05:38:54.461Z,93108.97
2023-03-06T05:41:21.798Z,93111.03
2023-03-06T05:43:48.861Z,93102.84
2023-03-06T05:46:15.885Z,93104.22
2023-03-06T05:48:51.735Z,93107.84
2023-03-06T05:51:20.151Z,93106.41
2023-03-06T05:53:47.133Z,93105.22
2023-03-06T05:56:14.585Z,93107.50
2023-03-06T05:58:42.694Z,93113.00
2023-03-06T06:01:10.725Z,93117.69
2023-03-06T06:03:38.635Z,93127.75
2023-03-06T06:06:07.778Z,93137.41
2023-03-06T06:08:36.107Z,93127.81
2023-03-06T06:11:04.800Z,93131.44
2023-03-06T06:13:32.250Z,93143.91
2023-03-06T06:16:00.418Z,93143.25
2023-03-06T06:18:27.912Z,93149.25
2023-03-06T06:20:56.016Z,93149.13
2023-03-06T06:23:23.199Z,93138.72
2023-03-06T06:25:51.626Z,93143.81
2023-03-06T06:28:18.563Z,93152.38
2023-03-06T06:30:46.566Z,93158.69
2023-03-06T06:33:14.624Z,93146.38
2023-03-06T06:35:43.520Z,93153.88
2023-03-06T06:38:10.444Z,93159.09
2023-03-06T06:40:37.853Z,93151.06
2023-03-06T06:43:06.264Z,93153.19
2023-03-06T06:45:33.449Z,93159.09
2023-03-06T06:48:00.417Z,93169.38
2023-03-06T06:50:27.410Z,93167.13
2023-03-06T06:52:55.020Z,93167.25
2023-03-06T06:55:22.481Z,93167.66
2023-03-06T06:57:49.482Z,93164.69
2023-03-06T07:00:19.464Z,93172.19
2023-03-06T07:02:49.320Z,93168.84
2023-03-06T07:05:16.881Z,93168.19
2023-03-06T07:07:44.980Z,93174.72
2023-03-06T07:10:14.348Z,93170.97
2023-03-06T07:12:41.442Z,93168.69
2023-03-06T07:15:09.302Z,93163.94
2023-03-06T07:17:38.083Z,93164.03
2023-03-06T07:20:07.286Z,93173.75
2023-03-06T07:22:48.658Z,93169.78
2023-03-06T07:25:17.915Z,93172.28
2023-03-06T07:27:51.056Z,93175.28
2023-03-06T07:30:20.201Z,93160.00
2023-03-06T07:32:49.209Z,93174.31
2023-03-06T07:35:20.347Z,93175.25
2023-03-06T07:37:47.959Z,93174.59
2023-03-06T07:40:14.985Z,93183.00
2023-03-06T07:42:42.211Z,93176.66
2023-03-06T07:45:13.324Z,93184.66
2023-03-06T07:47:40.783Z,93176.41
2023-03-06T07:50:10.296Z,93185.94
2023-03-06T07:52:37.184Z,93183.44
2023-03-06T07:55:04.946Z,93182.81
2023-03-06T07:57:31.900Z,93183.41
2023-03-06T08:00:06.034Z,93178.16
2023-03-06T08:02:40.345Z,93182.91
2023-03-06T08:05:12.702Z,93176.25
2023-03-06T08:07:40.756Z,93179.16
2023-03-06T08:10:08.464Z,93183.19
2023-03-06T08:12:37.240Z,93179.84
2023-03-06T08:15:06.424Z,93176.81
2023-03-06T08:17:33.345Z,93180.50
2023-03-06T08:20:00.864Z,93178.75
2023-03-06T08:22:31.963Z,93175.00
2023-03-06T08:25:01.281Z,93180.72
2023-03-06T08:27:28.552Z,93174.25
2023-03-06T08:29:55.568Z,93179.97
2023-03-06T08:32:24.880Z,93170.69
2023-03-06T08:34:52.973Z,93168.81
2023-03-06T08:37:20.269Z,93172.53
2023-03-06T08:39:55.241Z,93168.00
2023-03-06T08:42:23.137Z,93165.78
2023-03-06T08:44:50.672Z,93165.91
2023-03-06T08:47:18.192Z,93166.59
2023-03-06T08:49:45.796Z,93173.88
2023-03-06T08:52:12.780Z,93163.88
2023-03-06T08:54:39.793Z,93172.31
2023-03-06T08:57:09.450Z,93166.59
2023-03-06T08:59:37.866Z,93167.47
2023-03-06T09:02:06.751Z,93163.59
2023-03-06T09:04:34.445Z,93167.28
2023-03-06T09:07:01.883Z,93156.47
2023-03-06T09:09:29.851Z,93160.25
2023-03-06T09:11:59.292Z,93159.81
2023-03-06T09:14:28.005Z,93164.00
2023-03-06T09:16:55.083Z,93170.09
2023-03-06T09:19:22.379Z,93176.84
2023-03-06T09:21:50.089Z,93164.97
2023-03-06T09:24:17.690Z,93168.44
2023-03-06T09:26:46.733Z,93164.97
2023-03-06T09:29:16.603Z,93163.75
2023-03-06T09:31:46.152Z,93155.34
2023-03-06T09:34:13.190Z,93150.97
2023-03-06T09:36:55.336Z,93152.91
2023-03-06T09:39:25.234Z,93167.19
2023-03-06T09:41:55.099Z,93163.41
2023-03-06T09:44:23.754Z,93160.72
2023-03-06T09:47:24.857Z,93141.66
2023-03-06T09:50:14.520Z,93157.00
2023-03-06T09:52:46.257Z,93148.44
2023-03-06T09:55:17.162Z,93142.06
2023-03-06T09:58:08.320Z,93143.06
2023-03-06T10:00:38.736Z,93139.03
2023-03-06T10:03:17.843Z,93132.81
2023-03-06T10:05:47.539Z,93132.78
2023-03-06T10:08:31.098Z,93138.44
2023-03-06T10:11:01.979Z,93127.91
2023-03-06T10:13:35.884Z,93130.16
2023-03-06T10:16:08.834Z,93130.78
2023-03-06T10:18:39.084Z,93130.59
2023-03-06T10:21:20.326Z,93122.00
2023-03-06T10:23:53.716Z,93114.38
2023-03-06T10:26:23.430Z,93122.53
2023-03-06T10:28:57.970Z,93113.72
2023-03-06T10:31:25.284Z,93113.00
2023-03-06T10:33:56.593Z,93110.56
2023-03-06T10:36:30.085Z,93103.75
2023-03-06T10:39:01.561Z,93111.38
2023-03-06T10:41:30.719Z,93096.56
2023-03-06T10:44:23.827Z,93102.28
2023-03-06T10:46:53.233Z,93097.75
2023-03-06T10:49:42.716Z,93086.84
2023-03-06T10:52:21.776Z,93084.47
2023-03-06T10:54:48.910Z,93076.25
2023-03-06T10:57:24.144Z,93076.84
2023-03-06T11:00:06.419Z,93056.31
2023-03-06T11:02:36.853Z,93055.19
2023-03-06T11:05:19.706Z,93062.56
2023-03-06T11:07:54.895Z,93063.22
2023-03-06T11:10:23.369Z,93061.41
2023-03-06T11:12:57.590Z,93058.97
2023-03-06T11:15:25.265Z,93058.56
2023-03-06T11:18:01.134Z,93048.69
2023-03-06T11:20:48.506Z,93056.66
2023-03-06T11:23:19.284Z,93044.50
2023-03-06T11:25:48.942Z,93022.41
2023-03-06T11:28:20.673Z,93024.66
2023-03-06T11:30:49.444Z,93021.59
2023-03-06T11:33:22.340Z,93014.38
2023-03-06T11:35:56.266Z,93012.09
2023-03-06T11:38:32.698Z,93015.34
2023-03-06T11:41:01.407Z,93003.31
2023-03-06T11:43:34.267Z,92998.47
2023-03-06T11:46:06.661Z,92984.97
2023-03-06T11:48:37.015Z,92986.13
2023-03-06T11:51:11.974Z,92995.38
2023-03-06T11:53:40.252Z,92986.38
2023-03-06T11:56:22.967Z,92983.16
2023-03-06T11:58:57.229Z,92978.41
2023-03-06T12:01:28.576Z,92981.91
2023-03-06T12:04:43.767Z,92978.47
2023-03-06T12:07:29.363Z,92982.53
2023-03-06T12:10:02.533Z,92972.41
2023-03-06T12:12:45.648Z,92967.97
2023-03-06T12:15:23.010Z,92972.88
2023-03-06T12:18:03.927Z,92972.41
2023-03-06T12:20:41.639Z,92965.97
2023-03-06T12:23:22.167Z,92968.09
2023-03-06T12:25:52.074Z,92965.00
2023-03-06T12:28:40.255Z,92962.44
2023-03-06T12:31:18.018Z,92965.34
2023-03-06T12:33:51.953Z,92961.97
2023-03-06T12:36:29.034Z,92969.28
2023-03-06T12:39:09.211Z,92964.59
2023-03-06T12:41:56.869Z,92962.59
2023-03-06T12:44:51.560Z,92962.25
2023-03-06T12:47:22.464Z,92956.47
2023-03-06T12:49:53.800Z,92947.38
2023-03-06T12:52:29.603Z,92954.03
2023-03-06T12:54:59.320Z,92951.16
2023-03-06T12:57:26.927Z,92951.28
2023-03-06T12:59:54.978Z,92935.50
2023-03-06T13:02:58.086Z,92923.09
2023-03-06T13:05:49.585Z,92926.38
2023-03-06T13:08:46.598Z,92932.97
2023-03-06T13:11:37.451Z,92926.34
2023-03-06T13:14:22.181Z,92916.94
2023-03-06T13:16:49.376Z,92914.91
2023-03-06T13:19:19.131Z,92913.53
2023-03-06T13:22:26.657Z,92928.78
2023-03-06T13:25:28.982Z,92918.34
2023-03-06T13:28:04.865Z,92908.38
2023-03-06T13:30:52.962Z,92915.44
2023-03-06T13:33:52.367Z,92918.75
2023-03-06T13:36:28.181Z,92920.47
2023-03-06T13:39:06.270Z,92914.72
2023-03-06T13:41:56.409Z,92930.84
2023-03-06T13:44:51.068Z,92915.53
2023-03-06T13:48:02.855Z,92926.25
2023-03-06T13:50:37.901Z,92924.34
2023-03-06T13:53:28.741Z,92932.25
2023-03-06T13:56:05.167Z,92924.72
2023-03-06T13:58:44.368Z,92918.88
2023-03-06T14:01:22.415Z,92922.28
2023-03-06T14:04:17.059Z,92924.25
2023-03-06T14:06:51.507Z,92922.41
2023-03-06T14:09:26.795Z,92919.81
2023-03-06T14:11:58.394Z,92927.09
2023-03-06T14:14:33.284Z,92921.50
2023-03-06T14:17:04.844Z,92907.59
2023-03-06T14:19:37.567Z,92914.44
2023-03-06T14:22:06.041Z,92919.78
2023-03-06T14:24:36.660Z,92923.19
2023-03-06T14:27:04.103Z,92919.81
2023-03-06T14:29:33.216Z,92924.44
2023-03-06T14:32:06.084Z,92921.19
2023-03-06T14:34:37.665Z,92933.66
2023-03-06T14:37:07.896Z,92941.59
2023-03-06T14:39:37.808Z,92938.06
2023-03-06T14:42:06.224Z,92944.53
2023-03-06T14:44:33.002Z,92940.41
2023-03-06T14:47:28.638Z,92939.09
2023-03-06T14:50:24.129Z,92929.53
2023-03-06T14:52:54.060Z,92935.66
2023-03-06T14:55:23.841Z,92932.13
2023-03-06T14:57:59.365Z,92925.75
2023-03-06T15:00:32.240Z,92929.09
2023-03-06T15:03:02.357Z,92927.09
2023-03-06T15:05:30.225Z,92927.63
2023-03-06T15:07:59.675Z,92931.41
2023-03-06T15:10:30.209Z,92931.34
2023-03-06T15:13:08.813Z,92931.81
2023-03-06T15:15:36.109Z,92935.56
2023-03-06T15:18:28.914Z,92935.72
2023-03-06T15:21:06.859Z,92937.25
2023-03-06T15:23:39.018Z,92931.19
2023-03-06T15:26:23.968Z,92927.34
2023-03-06T15:29:08.228Z,92931.59
2023-03-06T15:31:36.747Z,92930.72
2023-03-06T15:34:25.155Z,92921.41
2023-03-06T15:36:54.959Z,92925.75
2023-03-06T15:39:33.963Z,92927.09
2023-03-06T15:42:05.127Z,92931.31
2023-03-06T15:44:33.227Z,92928.56
2023-03-06T15:47:08.410Z,92931.66
2023-03-06T15:49:39.273Z,92942.84
2023-03-06T15:52:06.658Z,92921.31
2023-03-06T15:54:33.719Z,92937.16
2023-03-06T15:57:01.057Z,92933.34
2023-03-06T15:59:33.377Z,92938.66
2023-03-06T16:02:04.048Z,92939.28
2023-03-06T16:04:31.060Z,92943.63
2023-03-06T16:06:59.465Z,92949.22
2023-03-06T16:09:27.061Z,92934.00
2023-03-06T16:11:59.457Z,92930.53
2023-03-06T16:14:36.965Z,92941.44
2023-03-06T16:17:04.228Z,92932.13
2023-03-06T16:19:33.447Z,92942.25
2023-03-06T16:22:01.905Z,92953.38
2023-03-06T16:24:30.526Z,92936.38
2023-03-06T16:26:59.645Z,92939.94
2023-03-06T16:29:30.638Z,92958.19
2023-03-06T16:32:03.388Z,92944.84
2023-03-06T16:35:11.817Z,92949.66
2023-03-06T16:37:50.620Z,92952.91
2023-03-06T16:40:23.155Z,92952.25
2023-03-06T16:42:53.993Z,92960.19
2023-03-06T16:45:21.443Z,92948.94
2023-03-06T16:47:48.993Z,92944.16
2023-03-06T16:50:22.770Z,92949.47
2023-03-06T16:52:52.263Z,92961.56
2023-03-06T16:55:19.894Z,92954.38
2023-03-06T16:57:47.347Z,92955.34
2023-03-06T17:00:15.996Z,92953.06
2023-03-06T17:02:44.043Z,92955.78
2023-03-06T17:05:12.066Z,92949.28
2023-03-06T17:07:39.837Z,92954.50
2023-03-06T17:10:11.197Z,92960.94
2023-03-06T17:12:38.307Z,92968.34
2023-03-06T17:15:07.784Z,92964.53
2023-03-06T17:17:36.073Z,92964.34
2023-03-06T17:20:04.121Z,92968.34
2023-03-06T17:22:33.717Z,92967.19
2023-03-06T17:25:00.799Z,92962.84
2023-03-06T17:27:29.827Z,92954.38
2023-03-06T17:30:02.039Z,92950.53
2023-03-06T17:32:29.941Z,92956.91
2023-03-06T17:34:57.167Z,92956.69
2023-03-06T17:37:25.701Z,92948.13
2023-03-06T17:39:52.819Z,92944.31
2023-03-06T17:42:21.503Z,92929.47
2023-03-06T17:44:51.085Z,92935.63
2023-03-06T17:47:19.968Z,92946.22
2023-03-06T17:49:47.025Z,92943.81
2023-03-06T17:52:13.988Z,92945.25
2023-03-06T17:54:41.331Z,92935.81
2023-03-06T17:57:10.124Z,92938.09
2023-03-06T17:59:37.582Z,92947.19
2023-03-06T18:02:07.032Z,92942.41
2023-03-06T18:04:35.373Z,92946.25
2023-03-06T18:07:02.394Z,92943.88
2023-03-06T18:09:29.488Z,92949.81
2023-03-06T18:11:56.674Z,92956.84
2023-03-06T18:14:25.179Z,92957.59
2023-03-06T18:16:52.453Z,92954.53
2023-03-06T18:19:21.982Z,92958.06
2023-03-06T18:21:49.464Z,92956.31
2023-03-06T18:24:16.499Z,92968.94
2023-03-06T18:26:44.247Z,92958.69
2023-03-06T18:29:11.336Z,92964.63
2023-03-06T18:31:42.349Z,92962.84
2023-03-06T18:34:11.205Z,92974.28
2023-03-06T18:36:40.402Z,92971.25
2023-03-06T18:39:09.685Z,92974.63
2023-03-06T18:41:37.574Z,92976.75
2023-03-06T18:44:05.188Z,92970.63
2023-03-06T18:46:33.761Z,92971.56
2023-03-06T18:49:00.793Z,92971.88
2023-03-06T18:51:29.953Z,92956.41
2023-03-06T18:54:00.173Z,92960.94
2023-03-06T18:56:38.110Z,92965.91
2023-03-06T18:59:06.565Z,92972.59
2023-03-06T19:01:34.600Z,92972.88
2023-03-06T19:04:03.861Z,92963.28
2023-03-06T19:06:31.711Z,92965.69
2023-03-06T19:09:04.985Z,92961.16
2023-03-06T19:11:32.521Z,92948.81
2023-03-06T19:14:01.680Z,92947.03
2023-03-06T19:16:30.308Z,92955.50
2023-03-06T19:18:57.971Z,92958.69
2023-03-06T19:21:26.980Z,92950.69
2023-03-06T19:23:57.516Z,92951.19
2023-03-06T19:26:28.117Z,92947.81
2023-03-06T19:28:57.125Z,92946.84
2023-03-06T19:31:27.111Z,92943.16
2023-03-06T19:34:02.311Z,92933.69
2023-03-06T19:36:33.689Z,92932.44
2023-03-06T19:39:04.116Z,92931.97
2023-03-06T19:41:33.391Z,92934.72
2023-03-06T19:44:09.901Z,92935.69
2023-03-06T19:46:41.526Z,92937.09
2023-03-06T19:49:13.649Z,92921.19
2023-03-06T19:51:40.758Z,92925.38
2023-03-06T19:54:07.999Z,92934.66
2023-03-06T19:56:36.779Z,92927.13
2023-03-06T19:59:05.085Z,92934.38
2023-03-06T20:01:34.296Z,92940.44
2023-03-06T20:04:01.662Z,92941.25
2023-03-06T20:06:30.342Z,92933.41
2023-03-06T20:08:57.106Z,92939.03
2023-03-06T20:11:25.860Z,92932.97
2023-03-06T20:13:54.374Z,92919.03
2023-03-06T20:16:21.394Z,92924.50
2023-03-06T20:18:49.802Z,92934.94
2023-03-06T20:21:16.874Z,92927.56
2023-03-06T20:23:44.108Z,92928.53
2023-03-06T20:26:13.321Z,92925.34
2023-03-06T20:28:41.658Z,92926.16
2023-03-06T20:31:11.255Z,92921.53
2023-03-06T20:33:41.622Z,92925.34
2023-03-06T20:36:12.298Z,92929.50
2023-03-06T20:38:40.566Z,92917.31
2023-03-06T20:41:08.920Z,92927.75
2023-03-06T20:43:35.942Z,92914.13
2023-03-06T20:46:06.013Z,92915.09
2023-03-06T20:48:38.513Z,92928.06
2023-03-06T20:51:07.639Z,92923.59
2023-03-06T20:53:37.741Z,92925.19
2023-03-06T20:56:05.572Z,92927.75
2023-03-06T20:58:32.717Z,92944.69
2023-03-06T21:01:02.294Z,92930.94
2023-03-06T21:03:29.794Z,92937.50
2023-03-06T21:05:58.355Z,92924.84
2023-03-06T21:08:25.387Z,92932.88
2023-03-06T21:10:52.345Z,92927.28
2023-03-06T21:13:19.846Z,92924.25
2023-03-06T21:15:48.063Z,92926.81
2023-03-06T21:18:15.592Z,92930.69
2023-03-06T21:20:44.419Z,92918.50
2023-03-06T21:23:12.802Z,92912.41
2023-03-06T21:25:46.646Z,92914.16
2023-03-06T21:28:16.652Z,92898.50
2023-03-06T21:30:43.998Z,92902.81
2023-03-06T21:33:12.829Z,92901.69
2023-03-06T21:35:41.016Z,92886.78
2023-03-06T21:38:08.221Z,92884.66
2023-03-06T21:40:36.970Z,92885.47
2023-03-06T21:43:04.326Z,92877.91
2023-03-06T21:45:31.515Z,92883.84
2023-03-06T21:47:58.952Z,92880.13
2023-03-06T21:50:26.778Z,92869.44
2023-03-06T21:52:54.216Z,92871.16
2023-03-06T21:55:21.610Z,92869.84
2023-03-06T21:57:51.522Z,92872.56
2023-03-06T22:00:19.702Z,92861.50
2023-03-06T22:02:47.813Z,92861.34
2023-03-06T22:05:14.905Z,92857.03
2023-03-06T22:07:42.670Z,92865.16
2023-03-06T22:10:15.665Z,92870.72
2023-03-06T22:12:42.994Z,92886.31
2023-03-06T22:15:12.170Z,92882.94
2023-03-06T22:17:41.654Z,92874.72
2023-03-06T22:20:10.239Z,92876.13
2023-03-06T22:22:37.292Z,92877.09
2023-03-06T22:25:05.088Z,92883.66
2023-03-06T22:27:32.046Z,92876.13
2023-03-06T22:30:00.426Z,92873.94
2023-03-06T22:32:28.780Z,92874.09
2023-03-06T22:34:55.743Z,92869.66
2023-03-06T22:37:22.796Z,92881.97
2023-03-06T22:39:49.712Z,92882.44
2023-03-06T22:42:16.624Z,92895.06
2023-03-06T22:44:44.246Z,92885.94
2023-03-06T22:47:11.314Z,92888.00
2023-03-06T22:49:41.425Z,92892.97
2023-03-06T22:52:09.077Z,92902.25
2023-03-06T22:54:36.233Z,92894.88
2023-03-06T22:57:03.151Z,92880.31
2023-03-06T22:59:30.174Z,92891.66
2023-03-06T23:01:57.407Z,92895.00
2023-03-06T23:04:26.514Z,92893.06
2023-03-06T23:06:56.361Z,92893.06
2023-03-06T23:09:23.246Z,92893.34
2023-03-06T23:12:11.560Z,92888.84
2023-03-06T23:14:57.409Z,92877.66
2023-03-06T23:17:43.471Z,92882.47
2023-03-06T23:20:29.030Z,92880.59
2023-03-06T23:23:16.343Z,92888.50
2023-03-06T23:25:43.954Z,92885.31
2023-03-06T23:28:12.008Z,92885.97
2023-03-06T23:30:39.488Z,92891.31
2023-03-06T23:33:06.823Z,92887.00
2023-03-06T23:35:34.336Z,92893.78
2023-03-06T23:38:03.082Z,92898.59
2023-03-06T23:40:33.512Z,92898.53
2023-03-06T23:43:00.590Z,92896.41
2023-03-06T23:45:28.019Z,92898.84
2023-03-06T23:47:54.980Z,92890.34
2023-03-06T23:50:23.123Z,92889.09
2023-03-06T23:52:51.699Z,92893.22
2023-03-06T23:55:19.186Z,92896.59
2023-03-06T23:57:47.695Z,92890.53
